Estación Meteorológica Peña el Pijo (Robertgarden) [ 07/24/17 22:42:29 CEST ]

Fecha Hora Presion(HPa) Temp (°C) Humedad % Rocio (°C) Viento ( m/s) Direccion Lluvia 1Hora(mm) Lluvia 24H(mm) LLuvia Total(mm)
2017-Jun-04 01:01:45 1009.900 13.9 74 9.3         1414.65
2017-Jun-04 02:01:41 1009.500 12.9 77 8.9         1414.65
2017-Jun-04 03:01:39 1009.500 12.7 78 8.9         1414.65
2017-Jun-04 04:01:36 1009.400 12.2 78 8.5         1414.65
2017-Jun-04 05:03:30 1009.100 11.9 80 8.6         1414.65
2017-Jun-04 06:01:39 1008.800 11.6 82 8.6         1414.65
2017-Jun-04 07:01:48 1008.700 12.5 83 9.7         1414.65
2017-Jun-04 08:01:44 1009.000 13.1 83 10.2         1414.65
2017-Jun-04 09:01:45 1008.900 17.8 79 14.1         1414.65
2017-Jun-04 10:01:55 1009.000 21.1 64 14.0         1414.65
2017-Jun-04 11:01:41 1008.600 23.0 59 14.5         1414.65
2017-Jun-04 12:01:42 1008.500 23.9 57 14.9         1414.65
2017-Jun-04 13:01:48 1008.300 23.1 55 13.5         1414.65
2017-Jun-04 14:01:41 1007.800 18.8 74 14.0     1.55 1.55 1416.21
2017-Jun-04 15:01:52 1007.800 12.9 79 9.3     9.84 11.91 1426.57
2017-Jun-04 16:01:44 1007.100 14.6 84 11.9       11.91 1426.57
2017-Jun-04 17:01:47 1006.700 18.7 78 14.8       11.91 1426.57
2017-Jun-04 18:01:59 1006.200 21.1 65 14.2       11.91 1426.57
2017-Jun-04 19:01:43 1006.200 20.7 61 12.9       11.91 1426.57
2017-Jun-04 20:02:01 1006.600 18.8 66 12.3       11.91 1426.57
2017-Jun-04 21:01:52 1006.300 16.0 62 8.8       11.91 1426.57
2017-Jun-04 22:01:40 1007.700 13.1 70 7.8       11.91 1426.57
2017-Jun-04 23:01:41 1008.100 14.5 75 10.1     0.51 12.43 1427.09

Temperatura Máxima:23°    Temperatura Mínima:11°
Presión Máxima:1009.900 Hpa    Presión Mínima:1006.200 Hpa


Volver